RJKI(METAR)
02/20 17:00
RJKI 200800Z 34009KT 9999 FEW020 BKNXXX 20/16 Q1020 RMK A3013=
戻る
トップページへ戻る
IMOC Co,.Ltd.